createdAt,value
2019-05-03T00:01:21.754Z,0.36
2019-05-03T00:06:45.030Z,0.43
2019-05-03T00:11:44.245Z,0.76
2019-05-03T00:16:53.520Z,0.28
2019-05-03T00:22:02.737Z,0.29
2019-05-03T00:27:12.541Z,0.45
2019-05-03T00:32:21.703Z,0.32
2019-05-03T00:37:29.817Z,0.47
2019-05-03T00:42:39.052Z,0.51
2019-05-03T00:47:48.516Z,0.41
2019-05-03T00:52:57.702Z,0.41
2019-05-03T00:58:07.176Z,0.87
2019-05-03T01:03:16.344Z,0.41
2019-05-03T01:08:25.631Z,0.67
2019-05-03T01:13:34.809Z,0.46
2019-05-03T01:18:44.030Z,0.22
2019-05-03T01:23:53.221Z,0.38
2019-05-03T01:29:02.780Z,0.43
2019-05-03T01:34:12.504Z,0.26
2019-05-03T01:39:22.235Z,0.26
2019-05-03T01:44:29.552Z,0.39
2019-05-03T01:49:38.731Z,0.38
2019-05-03T01:54:48.020Z,0.24
2019-05-03T01:59:57.197Z,0.31
2019-05-03T02:05:06.617Z,0.20
2019-05-03T02:10:15.793Z,0.34
2019-05-03T02:15:25.274Z,0.28
2019-05-03T02:20:34.473Z,0.44
2019-05-03T02:25:55.537Z,0.36
2019-05-03T02:30:53.527Z,0.21
2019-05-03T02:36:03.592Z,0.49
2019-05-03T02:41:13.198Z,0.35
2019-05-03T02:46:18.954Z,0.21
2019-05-03T02:51:28.200Z,0.26
2019-05-03T02:56:37.723Z,0.37
2019-05-03T03:01:47.006Z,0.41
2019-05-03T03:06:56.460Z,0.28
2019-05-03T03:12:06.295Z,0.40
2019-05-03T03:17:15.000Z,0.55
2019-05-03T03:22:25.855Z,0.27
2019-05-03T03:27:32.769Z,0.29
2019-05-03T03:32:41.955Z,0.30
2019-05-03T03:37:51.167Z,0.56
2019-05-03T03:43:00.404Z,0.27
2019-05-03T03:48:09.781Z,0.38
2019-05-03T03:53:19.012Z,0.31
2019-05-03T03:58:28.428Z,0.44
2019-05-03T04:03:37.732Z,0.32
2019-05-03T04:08:47.065Z,0.32
2019-05-03T04:13:56.471Z,0.14
2019-05-03T04:19:06.033Z,0.32
2019-05-03T04:24:16.367Z,0.31
2019-05-03T04:29:25.417Z,0.24
2019-05-03T04:34:35.668Z,0.24
2019-05-03T04:39:42.120Z,0.25
2019-05-03T04:44:51.448Z,0.34
2019-05-03T04:50:00.878Z,0.22
2019-05-03T04:55:10.250Z,0.19
2019-05-03T05:00:19.518Z,0.28
2019-05-03T05:05:28.786Z,0.39
2019-05-03T05:10:38.203Z,0.24
2019-05-03T05:15:47.551Z,0.33
2019-05-03T05:20:56.901Z,0.32
2019-05-03T05:26:06.381Z,0.27
2019-05-03T05:31:15.785Z,0.20
2019-05-03T05:36:25.182Z,0.24
2019-05-03T05:41:34.815Z,0.31
2019-05-03T05:46:45.339Z,0.36
2019-05-03T05:51:52.113Z,0.32
2019-05-03T05:57:01.565Z,0.16
2019-05-03T06:02:10.804Z,0.10
2019-05-03T06:07:20.233Z,0.16
2019-05-03T06:12:29.434Z,0.11
2019-05-03T06:17:38.882Z,0.25
2019-05-03T06:22:48.088Z,0.15
2019-05-03T06:27:57.709Z,0.17
2019-05-03T06:33:06.961Z,0.26
2019-05-03T06:38:16.423Z,0.14
2019-05-03T06:43:25.669Z,0.18
2019-05-03T06:48:35.325Z,0.12
2019-05-03T06:53:47.606Z,0.10
2019-05-03T06:58:52.713Z,0.18
2019-05-03T07:04:02.075Z,0.18
2019-05-03T07:09:11.285Z,0.10
2019-05-03T07:14:20.662Z,0.17
2019-05-03T07:19:29.917Z,0.09
2019-05-03T07:24:40.815Z,0.19
2019-05-03T07:29:48.270Z,0.12
2019-05-03T07:34:57.527Z,0.18
2019-05-03T07:40:06.906Z,0.17
2019-05-03T07:45:16.362Z,0.15
2019-05-03T07:50:26.081Z,0.21
2019-05-03T07:55:35.288Z,0.10
2019-05-03T08:00:44.623Z,0.20
2019-05-03T08:05:52.699Z,0.16
2019-05-03T08:11:02.017Z,0.13
2019-05-03T08:16:11.283Z,0.12
2019-05-03T08:21:20.618Z,0.15
2019-05-03T08:26:30.001Z,0.17
2019-05-03T08:31:39.422Z,0.10
2019-05-03T08:36:49.051Z,0.23
2019-05-03T08:38:05.644Z,0.21
2019-05-03T08:43:05.286Z,0.16
2019-05-03T08:48:15.090Z,0.12
2019-05-03T08:53:25.652Z,0.12
2019-05-03T08:58:32.226Z,0.17
2019-05-03T09:03:41.551Z,0.19
2019-05-03T09:08:54.253Z,0.24
2019-05-03T09:13:59.972Z,0.16
2019-05-03T09:19:09.386Z,0.13
2019-05-03T09:24:18.685Z,0.15
2019-05-03T09:29:40.268Z,0.10
2019-05-03T09:34:36.969Z,0.15
2019-05-03T09:39:46.332Z,0.12
2019-05-03T09:44:55.779Z,0.10
2019-05-03T09:50:04.960Z,0.12
2019-05-03T09:55:14.577Z,0.12
2019-05-03T10:00:24.562Z,0.15
2019-05-03T10:05:32.179Z,0.10
2019-05-03T10:10:41.549Z,0.23
2019-05-03T10:15:50.953Z,0.22
2019-05-03T10:21:00.257Z,0.15
2019-05-03T10:26:09.646Z,0.14
2019-05-03T10:31:18.928Z,0.15
2019-05-03T10:36:28.277Z,0.15
2019-05-03T10:41:37.691Z,0.17
2019-05-03T10:46:47.093Z,0.17
2019-05-03T10:51:56.401Z,0.15
2019-05-03T10:57:05.790Z,0.15
2019-05-03T11:02:13.648Z,0.11
2019-05-03T11:07:22.995Z,0.14
2019-05-03T11:12:34.619Z,0.10
2019-05-03T11:17:39.946Z,0.10
2019-05-03T11:22:49.428Z,0.14
2019-05-03T11:27:59.068Z,0.15
2019-05-03T11:33:08.417Z,0.13
2019-05-03T11:38:18.331Z,0.10
2019-05-03T11:43:26.555Z,0.16
2019-05-03T11:48:36.082Z,0.18
2019-05-03T11:53:45.624Z,0.20
2019-05-03T11:58:55.137Z,0.37
2019-05-03T12:04:04.958Z,0.10
2019-05-03T12:09:15.448Z,0.09
2019-05-03T12:14:24.399Z,0.13
2019-05-03T12:19:32.082Z,0.15
2019-05-03T12:24:40.516Z,0.19
2019-05-03T12:29:48.977Z,0.10
2019-05-03T12:34:58.362Z,0.21
2019-05-03T12:40:07.726Z,0.12
2019-05-03T12:45:17.265Z,0.14
2019-05-03T12:50:26.526Z,0.10
2019-05-03T12:55:35.881Z,0.10
2019-05-03T13:00:48.175Z,0.15
2019-05-03T13:05:55.623Z,0.10
2019-05-03T13:11:05.049Z,0.17
2019-05-03T13:16:11.904Z,0.21
2019-05-03T13:21:21.262Z,0.10
2019-05-03T13:26:30.524Z,0.13
2019-05-03T13:31:39.851Z,0.10
2019-05-03T13:36:49.102Z,0.15
2019-05-03T13:41:58.564Z,0.11
2019-05-03T13:47:07.934Z,0.10
2019-05-03T13:52:17.279Z,0.10
2019-05-03T13:57:26.678Z,0.09
2019-05-03T14:02:36.169Z,0.14
2019-05-03T14:07:45.417Z,0.10
2019-05-03T14:12:54.912Z,0.10
2019-05-03T14:18:05.939Z,0.16
2019-05-03T14:23:14.950Z,0.14
2019-05-03T14:28:22.047Z,0.10
2019-05-03T14:33:31.413Z,0.10
2019-05-03T14:38:40.687Z,0.09
2019-05-03T14:43:50.297Z,0.10
2019-05-03T14:48:59.615Z,0.05
2019-05-03T14:54:08.967Z,0.17
2019-05-03T14:59:18.342Z,0.11
2019-05-03T15:04:27.646Z,0.05
2019-05-03T15:09:37.199Z,0.15
2019-05-03T15:14:46.422Z,0.14
2019-05-03T15:19:55.778Z,0.09
2019-05-03T15:25:05.180Z,0.09
2019-05-03T15:30:15.601Z,0.19
2019-05-03T15:35:23.227Z,0.13
2019-05-03T15:40:36.028Z,0.09
2019-05-03T15:45:35.233Z,0.07
2019-05-03T15:50:44.718Z,0.09
2019-05-03T15:55:55.006Z,0.09
2019-05-03T16:01:04.540Z,0.09
2019-05-03T16:06:11.679Z,0.08
2019-05-03T16:11:21.249Z,0.10
2019-05-03T16:16:30.817Z,0.07
2019-05-03T16:21:40.166Z,0.09
2019-05-03T16:26:49.402Z,0.11
2019-05-03T16:31:58.873Z,0.15
2019-05-03T16:37:08.157Z,0.18
2019-05-03T16:42:17.480Z,0.07
2019-05-03T16:47:26.772Z,0.10
2019-05-03T16:52:36.224Z,0.12
2019-05-03T16:57:45.542Z,0.08
2019-05-03T17:02:55.211Z,0.13
2019-05-03T17:08:01.335Z,0.07
2019-05-03T17:13:10.678Z,0.07
2019-05-03T17:18:20.197Z,0.20
2019-05-03T17:23:29.531Z,0.16
2019-05-03T17:28:48.928Z,0.09
2019-05-03T17:33:58.395Z,0.12
2019-05-03T17:38:56.960Z,0.10
2019-05-03T17:43:58.229Z,0.15
2019-05-03T17:48:57.893Z,0.20
2019-05-03T17:54:10.276Z,0.13
2019-05-03T17:59:09.986Z,0.10
2019-05-03T18:04:20.700Z,0.17
2019-05-03T18:09:22.473Z,0.09
2019-05-03T18:14:25.470Z,0.18
2019-05-03T18:19:28.507Z,0.13
2019-05-03T18:24:27.539Z,0.13
2019-05-03T18:29:41.312Z,0.15
2019-05-03T18:34:40.582Z,0.09
2019-05-03T18:39:49.865Z,0.08
2019-05-03T18:44:59.270Z,0.15
2019-05-03T18:50:08.572Z,0.12
2019-05-03T18:55:18.256Z,0.12
2019-05-03T19:00:27.685Z,0.19
2019-05-03T19:05:37.225Z,0.11
2019-05-03T19:10:46.441Z,0.08
2019-05-03T19:15:55.961Z,0.17
2019-05-03T19:21:05.257Z,0.15
2019-05-03T19:26:14.652Z,0.24
2019-05-03T19:31:25.135Z,0.14
2019-05-03T19:36:34.825Z,0.16
2019-05-03T19:42:57.352Z,0.27
2019-05-03T19:48:06.613Z,0.15
2019-05-03T19:53:16.383Z,0.17
2019-05-03T19:58:25.830Z,0.37
2019-05-03T20:03:35.400Z,0.23
2019-05-03T20:08:44.954Z,0.10
2019-05-03T20:13:55.228Z,0.28
2019-05-03T20:19:17.073Z,0.19
2019-05-03T20:24:12.293Z,0.15
2019-05-03T20:29:21.618Z,0.15
2019-05-03T20:34:31.146Z,0.16
2019-05-03T20:39:40.534Z,0.10
2019-05-03T20:44:50.079Z,0.17
2019-05-03T20:49:59.381Z,0.11
2019-05-03T20:55:08.698Z,0.07
2019-05-03T21:00:18.603Z,0.14
2019-05-03T21:05:32.060Z,0.10
2019-05-03T21:10:37.756Z,0.19
2019-05-03T21:15:47.244Z,0.17
2019-05-03T21:20:56.626Z,0.15
2019-05-03T21:26:12.623Z,0.31
2019-05-03T21:31:15.631Z,0.20
2019-05-03T21:36:25.357Z,0.19
2019-05-03T21:41:32.477Z,0.17
2019-05-03T21:46:41.879Z,0.29
2019-05-03T21:51:53.541Z,0.30
2019-05-03T21:56:59.990Z,0.15
2019-05-03T22:02:09.166Z,0.25
2019-05-03T22:07:18.535Z,0.24
2019-05-03T22:12:27.737Z,0.17
2019-05-03T22:17:37.089Z,0.21
2019-05-03T22:22:46.275Z,0.15
2019-05-03T22:27:55.674Z,0.27
2019-05-03T22:33:07.191Z,0.29
2019-05-03T22:38:06.569Z,0.10
2019-05-03T22:43:15.498Z,0.25
2019-05-03T22:48:25.130Z,0.21
2019-05-03T22:53:34.401Z,0.12
2019-05-03T22:58:42.682Z,0.21
2019-05-03T23:03:51.882Z,0.28
2019-05-03T23:09:01.185Z,0.25
2019-05-03T23:14:10.373Z,0.14
2019-05-03T23:19:19.663Z,0.28
2019-05-03T23:24:28.845Z,0.17
2019-05-03T23:29:38.372Z,0.19
2019-05-03T23:34:47.609Z,0.24
2019-05-03T23:39:56.969Z,0.26
2019-05-03T23:45:06.165Z,0.16
2019-05-03T23:50:15.500Z,0.18
2019-05-03T23:55:25.241Z,0.33
